15:59
Airports
Links
Donate
Help keep this website running!
PayPal
Bitcoin
METAR
KTTD 191553Z AUTO 06007KT 10SM OVC050 00/M06 A3015 RMK AO2 SLP210 T00001056
Current Weather Conditions at KTTD
VFR 15:53:00 19-02-18
Automated station, no observer
Altimeter:30.15 hg
Temp:0.0°c 32°f
Dew point:-5.6°c 23°f
Wind:7 knots, 8.1 mph, 4 m/s, from 60°
Visibility:10.0 statute miles
5000(OVC) Overcast
Past METAR reports
VFR 14:53:00 19-02-18
Automated station, no observer
Altimeter:30.11 hg
Temp:0.0°c 32°f
Dew point:-5.0°c 23°f
Wind:5 knots, 5.8 mph, 3 m/s, from 70°
Visibility:10.0 statute miles
5500(OVC) Overcast
KTTD 191453Z AUTO 07005KT 10SM OVC055 00/M05 A3011 RMK AO2 SLP197 T00001050 53029
VFR 13:53:00 19-02-18
Automated station, no observer
Altimeter:30.08 hg
Temp:0.0°c 32°f
Dew point:-5.0°c 23°f
Wind:7 knots, 8.1 mph, 4 m/s, from 80°
Visibility:10.0 statute miles
7500(OVC) Overcast
6000(SCT) Scattered
KTTD 191353Z AUTO 08007KT 10SM SCT060 OVC075 00/M05 A3008 RMK AO2 SLP187 T00001050
VFR 12:53:00 19-02-18
Automated station, no observer
Altimeter:30.05 hg
Temp:0.6°c 32°f
Dew point:-4.4°c 25°f
Wind:9 knots, 10.4 mph, 5 m/s, from 70°
Visibility:10.0 statute miles
8000(OVC) Overcast
KTTD 191253Z AUTO 07009KT 10SM OVC080 01/M04 A3005 RMK AO2 SLP177 T00061044
VFR 11:53:00 19-02-18
Automated station, no observer
Altimeter:30.03 hg
Temp:0.6°c 32°f
Dew point:-3.9°c 27°f
Wind:7 knots, 8.1 mph, 4 m/s, from 70°
Visibility:10.0 statute miles
7500(OVC) Overcast
KTTD 191153Z AUTO 07007KT 10SM OVC075 01/M04 A3003 RMK AO2 SLP168 70041 T00061039 10017 20006 51023
VFR 10:53:00 19-02-18
Automated station, no observer
Altimeter:30.01 hg
Temp:0.6°c 32°f
Dew point:-3.9°c 27°f
Wind:8 knots, 9.2 mph, 4 m/s, from 80°
Visibility:10.0 statute miles
7500(OVC) Overcast
5500(BKN) Broken
KTTD 191053Z AUTO 08008KT 10SM BKN055 OVC075 01/M04 A3001 RMK AO2 SLP162 T00061039
TAF
KTTD 191120Z 1912/2012 06005KT P6SM OVC050 FM191900 09004KT P6SM SCT035 BKN050 FM192300 09004KT P6SM SCT250 FM200400 09004KT P6SM SKC
Forecast at KTTD
12:00 19-02-18 to 19:00 19-02-18
Wind:5 Knots from 60°
Visibility:6.21 statute miles
5000OVC Overcast
FM 19:00 19-02-18 to 23:00 19-02-18
Wind:4 Knots from 90°
Visibility:6.21 statute miles
3500SCT Scattered
5000BKN Broken
FM 23:00 19-02-18 to 04:00 20-02-18
Wind:4 Knots from 90°
Visibility:6.21 statute miles
25000SCT Scattered
FM 04:00 20-02-18 to 12:00 20-02-18
Wind:4 Knots from 90°
Visibility:6.21 statute miles
SKC Clear